Time;durP1;ratioP1;P1;durP2;ratioP2;P2;SDS_P1;SDS_P2;PMS_P1;PMS_P2;Temp;Humidity;BMP_temperature;BMP_pressure;BME280_temperature;BME280_humidity;BME280_pressure;Samples;Min_cycle;Max_cycle;Signal;HPM_P1;HPM_P2
2024/02/28 00:02:18;;;;;;;8.70;2.90;;;;;;;1.89;100.00;102146.23;105342;1261;59673;-73
2024/02/28 00:04:47;;;;;;;8.50;3.50;;;;;;;1.87;100.00;102150.20;105632;1256;59808;-74
2024/02/28 00:07:14;;;;;;;9.80;3.00;;;;;;;1.83;100.00;102155.02;105449;1260;71860;-75
2024/02/28 00:09:43;;;;;;;10.90;3.50;;;;;;;1.80;100.00;102154.14;105735;1256;62301;-75
2024/02/28 00:12:11;;;;;;;9.00;4.10;;;;;;;1.76;100.00;102159.31;105663;1256;72644;-74
2024/02/28 00:14:38;;;;;;;15.00;4.10;;;;;;;1.73;100.00;102157.42;105582;1256;59611;-73
2024/02/28 00:17:06;;;;;;;14.50;5.10;;;;;;;1.69;100.00;102161.72;105407;1256;60246;-74
2024/02/28 00:19:33;;;;;;;7.60;4.60;;;;;;;1.66;100.00;102159.98;105469;1259;71816;-75
2024/02/28 00:22:01;;;;;;;13.60;5.50;;;;;;;1.65;100.00;102158.79;105392;1256;63022;-74
2024/02/28 00:24:29;;;;;;;11.20;5.80;;;;;;;1.63;100.00;102159.30;105540;1256;72537;-74
2024/02/28 00:26:57;;;;;;;19.40;6.60;;;;;;;1.60;100.00;102158.08;105683;1256;59738;-75
2024/02/28 00:29:25;;;;;;;16.20;7.50;;;;;;;1.58;100.00;102158.94;105619;1261;60065;-75
2024/02/28 00:31:52;;;;;;;17.70;6.30;;;;;;;1.54;100.00;102157.21;105339;1256;71764;-74
2024/02/28 00:34:20;;;;;;;21.80;8.30;;;;;;;1.51;100.00;102162.20;105435;1258;62532;-74
2024/02/28 00:36:48;;;;;;;16.10;6.80;;;;;;;1.48;100.00;102163.06;105566;1256;72429;-74
2024/02/28 00:39:22;;;;;;;14.40;7.00;;;;;;;1.44;100.00;102160.97;105424;1259;59654;-73
2024/02/28 00:41:50;;;;;;;18.30;8.20;;;;;;;1.43;100.00;102162.70;105487;1260;59601;-75
2024/02/28 00:44:18;;;;;;;21.40;8.60;;;;;;;1.40;100.00;102161.65;105390;1256;73883;-73
2024/02/28 00:46:45;;;;;;;17.70;9.60;;;;;;;1.34;100.00;102165.42;105628;1260;61263;-75
2024/02/28 00:49:13;;;;;;;26.90;10.20;;;;;;;1.29;100.00;102163.00;105606;1256;72680;-75
2024/02/28 00:51:40;;;;;;;24.60;11.80;;;;;;;1.23;100.00;102161.60;105494;1259;59628;-73
2024/02/28 00:54:08;;;;;;;23.40;11.70;;;;;;;1.19;100.00;102164.17;105372;1257;59998;-74
2024/02/28 00:56:35;;;;;;;27.40;11.50;;;;;;;1.14;100.00;102165.02;105407;1261;71781;-74
2024/02/28 00:59:03;;;;;;;17.80;10.30;;;;;;;1.07;100.00;102164.64;105480;1257;62327;-74
2024/02/28 01:01:31;;;;;;;29.20;11.70;;;;;;;0.98;100.00;102162.36;105372;1256;71126;-75
2024/02/28 01:03:58;;;;;;;26.60;13.20;;;;;;;0.92;100.00;102165.26;105522;1257;59723;-75
2024/02/28 01:06:25;;;;;;;22.70;12.10;;;;;;;0.89;100.00;102169.54;105460;1256;59725;-76
2024/02/28 01:08:53;;;;;;;29.40;13.00;;;;;;;0.85;100.00;102166.59;105423;1261;72212;-75
2024/02/28 01:11:20;;;;;;;29.70;14.00;;;;;;;0.81;100.00;102166.58;105532;1261;63732;-73
2024/02/28 01:13:48;;;;;;;26.60;13.00;;;;;;;0.76;100.00;102171.70;105502;1260;72737;-74
2024/02/28 01:16:17;;;;;;;30.20;12.70;;;;;;;0.70;100.00;102172.55;105587;1260;59724;-75
2024/02/28 01:18:44;;;;;;;34.90;13.40;;;;;;;0.67;100.00;102179.58;105574;1260;60009;-73
2024/02/28 01:21:13;;;;;;;22.00;13.30;;;;;;;0.65;100.00;102175.77;105416;1256;71935;-74
2024/02/28 01:23:41;;;;;;;27.90;13.90;;;;;;;0.62;100.00;102178.00;105449;1256;63744;-75
2024/02/28 01:26:09;;;;;;;27.80;12.30;;;;;;;0.57;100.00;102175.73;105620;1261;72462;-76
2024/02/28 01:28:36;;;;;;;26.00;12.60;;;;;;;0.51;100.00;102177.06;105600;1261;59731;-74
2024/02/28 01:31:05;;;;;;;21.30;11.60;;;;;;;0.45;100.00;102172.55;105515;1256;60132;-73
2024/02/28 01:33:33;;;;;;;28.10;12.00;;;;;;;0.42;100.00;102171.33;105418;1261;71882;-75
2024/02/28 01:36:01;;;;;;;24.50;11.00;;;;;;;0.38;100.00;102175.08;105518;1258;62680;-75
2024/02/28 01:38:29;;;;;;;21.60;10.00;;;;;;;0.35;100.00;102168.70;105424;1260;72725;-75
2024/02/28 01:40:56;;;;;;;23.80;9.40;;;;;;;0.33;100.00;102175.04;105524;1256;59702;-75
2024/02/28 01:43:24;;;;;;;19.10;9.30;;;;;;;0.33;100.00;102181.41;105384;1257;59653;-74
2024/02/28 01:45:52;;;;;;;27.00;10.20;;;;;;;0.33;100.00;102179.52;105477;1256;72055;-73
2024/02/28 02:01:19;;;;;;;20.40;7.60;;;;;;;0.46;100.00;102179.09;102511;1292;601624;-75
2024/02/28 02:03:48;;;;;;;18.90;8.10;;;;;;;0.44;100.00;102181.66;105295;1264;59719;-73
2024/02/28 02:06:15;;;;;;;18.90;7.60;;;;;;;0.44;100.00;102181.66;105280;1259;60566;-74
2024/02/28 02:08:43;;;;;;;23.20;6.90;;;;;;;0.40;100.00;102182.15;105267;1260;72216;-72
2024/02/28 02:11:10;;;;;;;15.10;6.50;;;;;;;0.37;100.00;102185.05;105334;1263;63994;-73
2024/02/28 02:13:49;;;;;;;20.20;6.80;;;;;;;0.34;100.00;102184.34;105115;1263;190824;-74
2024/02/28 02:16:18;;;;;;;18.40;7.50;;;;;;;0.31;100.00;102184.48;105384;1262;59584;-74
2024/02/28 02:18:46;;;;;;;11.80;6.90;;;;;;;0.29;100.00;102187.23;105433;1258;60298;-73
2024/02/28 02:21:17;;;;;;;19.90;7.70;;;;;;;0.27;100.00;102188.41;105503;1258;72201;-74
2024/02/28 02:23:44;;;;;;;13.70;7.50;;;;;;;0.26;100.00;102189.95;105389;1262;63857;-74
2024/02/28 02:26:11;;;;;;;28.60;6.80;;;;;;;0.24;100.00;102186.50;105339;1257;71053;-72
2024/02/28 02:28:37;;;;;;;17.10;6.00;;;;;;;0.22;100.00;102185.44;105344;1262;59617;-73
2024/02/28 02:31:06;;;;;;;16.10;5.60;;;;;;;0.21;100.00;102190.08;106017;1254;59637;-74
2024/02/28 02:33:33;;;;;;;28.60;6.40;;;;;;;0.19;100.00;102189.04;106050;1251;72915;-72
2024/02/28 02:35:59;;;;;;;23.00;6.80;;;;;;;0.18;100.00;102193.16;105901;1253;63835;-74
2024/02/28 02:38:27;;;;;;;20.30;5.50;;;;;;;0.17;100.00;102197.96;105925;1254;72651;-73
2024/02/28 02:40:54;;;;;;;18.70;6.00;;;;;;;0.16;100.00;102195.55;105988;1254;61282;-76
2024/02/28 02:43:21;;;;;;;17.40;5.30;;;;;;;0.16;100.00;102201.05;106120;1254;59733;-76
2024/02/28 02:45:49;;;;;;;17.10;5.80;;;;;;;0.16;100.00;102202.78;105983;1250;72881;-73
2024/02/28 02:48:16;;;;;;;19.80;5.80;;;;;;;0.16;100.00;102205.36;105965;1254;62803;-72
2024/02/28 02:50:42;;;;;;;21.30;7.40;;;;;;;0.17;100.00;102210.00;105870;1254;72369;-72
2024/02/28 02:53:10;;;;;;;18.30;6.70;;;;;;;0.16;100.00;102211.20;105963;1254;59714;-72
2024/02/28 02:55:37;;;;;;;19.30;8.30;;;;;;;0.16;100.00;102210.86;106029;1254;59637;-72
2024/02/28 02:58:04;;;;;;;27.60;7.60;;;;;;;0.17;100.00;102212.41;105956;1250;71438;-75
2024/02/28 03:00:31;;;;;;;16.50;6.10;;;;;;;0.19;100.00;102218.45;106184;1254;64086;-73
2024/02/28 03:02:58;;;;;;;25.00;6.50;;;;;;;0.21;100.00;102222.60;106079;1250;72727;-73
2024/02/28 03:05:25;;;;;;;18.50;6.90;;;;;;;0.22;100.00;102225.69;106052;1254;59611;-72
2024/02/28 03:07:52;;;;;;;24.40;8.40;;;;;;;0.23;100.00;102224.83;106108;1250;60325;-75
2024/02/28 03:10:19;;;;;;;15.30;5.50;;;;;;;0.20;100.00;102223.45;105981;1251;73034;-74
2024/02/28 03:12:46;;;;;;;21.30;6.60;;;;;;;0.19;100.00;102229.11;105912;1254;63834;-74
2024/02/28 03:15:13;;;;;;;22.40;8.00;;;;;;;0.20;100.00;102228.43;105842;1254;72683;-72
2024/02/28 03:17:40;;;;;;;16.60;6.50;;;;;;;0.19;100.00;102225.33;105944;1254;59603;-72
2024/02/28 03:20:07;;;;;;;15.80;6.60;;;;;;;0.18;100.00;102226.18;105963;1254;60269;-73
2024/02/28 03:22:35;;;;;;;25.80;7.00;;;;;;;0.15;100.00;102221.68;105887;1254;73033;-73
2024/02/28 03:25:02;;;;;;;24.20;7.20;;;;;;;0.12;100.00;102217.86;106024;1250;62595;-72
2024/02/28 03:27:29;;;;;;;24.00;9.00;;;;;;;0.07;100.00;102217.98;105889;1255;72491;-73
2024/02/28 03:29:56;;;;;;;23.00;8.60;;;;;;;0.01;100.00;102224.48;105964;1254;59715;-73
2024/02/28 03:32:23;;;;;;;31.80;7.80;;;;;;;-0.02;100.00;102222.55;105859;1254;59615;-74
2024/02/28 03:34:50;;;;;;;32.60;7.70;;;;;;;-0.04;100.00;102224.42;105890;1250;72923;-74
2024/02/28 03:37:17;;;;;;;37.20;8.90;;;;;;;-0.08;100.00;102222.67;106006;1255;62534;-72
2024/02/28 03:39:44;;;;;;;31.10;7.40;;;;;;;-0.09;100.00;102220.59;105931;1256;72735;-71
2024/02/28 03:42:11;;;;;;;25.50;8.80;;;;;;;-0.10;100.00;102223.67;105932;1254;59628;-72
2024/02/28 03:44:38;;;;;;;30.10;9.00;;;;;;;-0.11;100.00;102223.51;105955;1254;59615;-73
2024/02/28 03:47:05;;;;;;;22.50;8.80;;;;;;;-0.11;100.00;102226.74;105996;1250;71549;-73
2024/02/28 03:49:32;;;;;;;24.10;8.10;;;;;;;-0.11;100.00;102223.49;105897;1254;63818;-74
2024/02/28 03:52:05;;;;;;;21.00;7.50;;;;;;;-0.10;100.00;102221.09;106019;1254;71136;-71
2024/02/28 03:54:31;;;;;;;18.20;7.90;;;;;;;-0.12;100.00;102223.31;105989;1255;59666;-73
2024/02/28 03:56:59;;;;;;;25.50;6.80;;;;;;;-0.13;100.00;102230.17;106029;1250;60365;-73
2024/02/28 03:59:26;;;;;;;26.80;7.60;;;;;;;-0.16;100.00;102227.92;106016;1251;73032;-73
2024/02/28 04:01:53;;;;;;;29.30;9.40;;;;;;;-0.22;100.00;102229.23;105933;1254;63663;-73
2024/02/28 04:04:21;;;;;;;28.40;8.40;;;;;;;-0.27;100.00;102221.27;105960;1254;72717;-72
2024/02/28 04:06:47;;;;;;;25.50;9.20;;;;;;;-0.31;100.00;102225.52;105926;1254;60263;-73
2024/02/28 04:09:15;;;;;;;34.30;8.50;;;;;;;-0.36;100.00;102224.09;105812;1251;60473;-73
2024/02/28 04:11:42;;;;;;;30.50;10.30;;;;;;;-0.41;100.00;102223.00;105926;1251;73271;-73
2024/02/28 04:14:09;;;;;;;31.00;9.70;;;;;;;-0.44;100.00;102224.86;105901;1250;62409;-74
2024/02/28 04:16:41;;;;;;;24.80;10.60;;;;;;;-0.46;100.00;102219.17;105924;1254;72693;-73
2024/02/28 04:19:08;;;;;;;34.10;11.10;;;;;;;-0.47;100.00;102223.80;105961;1254;61252;-74
2024/02/28 04:21:37;;;;;;;31.60;12.20;;;;;;;-0.49;100.00;102228.42;106015;1251;60571;-75
2024/02/28 04:24:08;;;;;;;32.60;12.90;;;;;;;-0.50;100.00;102226.69;105937;1251;73266;-77
2024/02/28 04:26:35;;;;;;;40.10;14.00;;;;;;;-0.48;100.00;102231.67;105966;1254;64125;-73
2024/02/28 04:29:07;;;;;;;40.60;13.00;;;;;;;-0.47;100.00;102230.67;105950;1254;73226;-74
2024/02/28 04:31:34;;;;;;;34.90;12.40;;;;;;;-0.49;100.00;102236.14;105899;1254;59727;-74
2024/02/28 04:34:01;;;;;;;49.70;18.00;;;;;;;-0.52;100.00;102240.40;105962;1255;59555;-75
2024/02/28 04:36:28;;;;;;;41.40;12.30;;;;;;;-0.53;100.00;102240.73;106039;1251;73069;-73
2024/02/28 04:38:55;;;;;;;38.10;12.50;;;;;;;-0.53;100.00;102244.85;106028;1255;64245;-72
2024/02/28 04:41:23;;;;;;;25.50;12.50;;;;;;;-0.54;100.00;102248.63;105965;1254;72625;-75
2024/02/28 04:43:52;;;;;;;32.70;12.60;;;;;;;-0.57;100.00;102248.77;105919;1256;59609;-73
2024/02/28 04:46:20;;;;;;;31.50;12.50;;;;;;;-0.59;100.00;102248.91;106037;1250;60140;-74
2024/02/28 04:48:47;;;;;;;38.60;12.30;;;;;;;-0.62;100.00;102254.02;106002;1250;74094;-73
2024/02/28 04:51:18;;;;;;;28.10;10.70;;;;;;;-0.63;100.00;102259.33;105919;1256;62928;-72
2024/02/28 04:53:44;;;;;;;31.80;12.20;;;;;;;-0.63;100.00;102255.55;105975;1255;71612;-74
2024/02/28 04:56:11;;;;;;;31.30;10.20;;;;;;;-0.59;100.00;102261.09;105948;1252;59632;-74
2024/02/28 04:58:38;;;;;;;24.10;12.50;;;;;;;-0.57;100.00;102261.13;105915;1251;60311;-74
2024/02/28 05:01:05;;;;;;;22.50;11.10;;;;;;;-0.53;100.00;102266.52;105935;1251;72730;-73
2024/02/28 05:03:32;;;;;;;33.20;12.70;;;;;;;-0.47;100.00;102268.98;105969;1250;62752;-73
2024/02/28 05:06:00;;;;;;;28.40;11.20;;;;;;;-0.44;100.00;102276.58;106043;1250;71136;-75
2024/02/28 05:08:28;;;;;;;25.50;11.60;;;;;;;-0.41;100.00;102276.61;106016;1254;59599;-73
2024/02/28 05:10:55;;;;;;;38.50;14.50;;;;;;;-0.37;100.00;102286.63;106015;1250;60358;-74
2024/02/28 05:13:24;;;;;;;25.30;11.40;;;;;;;-0.32;100.00;102288.57;105931;1255;73051;-73
2024/02/28 05:15:51;;;;;;;21.90;10.60;;;;;;;-0.31;100.00;102293.23;106017;1255;63891;-74
2024/02/28 05:18:18;;;;;;;24.40;10.00;;;;;;;-0.29;100.00;102291.36;105921;1254;72672;-74
2024/02/28 05:20:45;;;;;;;24.60;9.70;;;;;;;-0.26;100.00;102291.92;106003;1251;59650;-75
2024/02/28 05:23:13;;;;;;;24.00;10.40;;;;;;;-0.21;100.00;102296.95;105963;1256;60356;-75
2024/02/28 05:25:40;;;;;;;25.30;11.70;;;;;;;-0.19;100.00;102296.96;106022;1256;73033;-75
2024/02/28 05:28:07;;;;;;;32.90;10.80;;;;;;;-0.15;100.00;102298.23;106040;1254;63690;-75
2024/02/28 05:30:35;;;;;;;22.30;10.00;;;;;;;-0.07;100.00;102303.13;105994;1254;72613;-74
2024/02/28 05:33:02;;;;;;;27.50;10.50;;;;;;;0.21;100.00;102304.45;105934;1255;61248;-76
2024/02/28 05:35:30;;;;;;;42.10;12.20;;;;;;;0.68;100.00;102306.77;106028;1250;60299;-74
2024/02/28 05:37:57;;;;;;;29.80;12.00;;;;;;;1.21;100.00;102307.85;105962;1254;73054;-73
2024/02/28 05:40:24;;;;;;;33.60;11.90;;;;;;;1.67;100.00;102316.87;105942;1255;63775;-74
2024/02/28 05:42:52;;;;;;;25.80;12.30;;;;;;;1.95;100.00;102312.48;105997;1255;72608;-73
2024/02/28 05:45:18;;;;;;;33.10;11.50;;;;;;;2.32;100.00;102319.13;106034;1256;59728;-75
2024/02/28 05:47:48;;;;;;;25.30;11.00;;;;;;;2.86;100.00;102321.41;105989;1250;63302;-73
2024/02/28 05:50:15;;;;;;;34.30;12.30;;;;;;;3.33;100.00;102317.88;105969;1251;72808;-75
2024/02/28 05:52:42;;;;;;;21.30;11.20;;;;;;;3.65;100.00;102319.85;106089;1256;63810;-75
2024/02/28 05:55:09;;;;;;;27.30;12.00;;;;;;;3.89;97.39;102323.91;106018;1251;71528;-74
2024/02/28 05:57:37;;;;;;;23.20;11.30;;;;;;;4.14;95.35;102331.05;106057;1252;59714;-75
2024/02/28 06:00:09;;;;;;;24.40;10.80;;;;;;;4.49;88.87;102324.41;106104;1250;59626;-73
2024/02/28 06:02:38;;;;;;;23.00;10.10;;;;;;;4.95;80.38;102331.84;106000;1251;73269;-75
2024/02/28 06:05:05;;;;;;;16.10;5.20;;;;;;;5.46;71.79;102326.13;106031;1255;63762;-74
2024/02/28 06:07:32;;;;;;;15.40;7.00;;;;;;;6.02;62.07;102323.38;105990;1254;72775;-74
2024/02/28 06:10:00;;;;;;;20.30;6.90;;;;;;;6.51;58.92;102326.32;106028;1255;60582;-76
2024/02/28 06:12:28;;;;;;;13.70;5.60;;;;;;;7.00;56.47;102333.33;106081;1250;60577;-75
2024/02/28 06:14:56;;;;;;;17.40;5.10;;;;;;;7.55;53.82;102330.23;106019;1250;73895;-76
2024/02/28 06:17:23;;;;;;;29.60;7.70;;;;;;;8.09;50.55;102328.59;106012;1256;63807;-75
2024/02/28 06:19:51;;;;;;;18.80;5.50;;;;;;;8.50;47.16;102329.94;105994;1251;72705;-75
2024/02/28 06:22:18;;;;;;;15.20;5.60;;;;;;;8.76;46.84;102328.97;105994;1251;60530;-74
2024/02/28 06:24:46;;;;;;;13.80;4.70;;;;;;;9.14;45.92;102330.43;106127;1256;60517;-75
2024/02/28 06:27:13;;;;;;;16.70;5.00;;;;;;;9.52;44.46;102332.37;105964;1251;73520;-73
2024/02/28 06:29:40;;;;;;;10.50;3.80;;;;;;;9.85;43.01;102326.52;106009;1255;62339;-74
2024/02/28 06:32:07;;;;;;;9.20;4.30;;;;;;;10.12;41.90;102326.07;105964;1256;72759;-74
2024/02/28 06:34:34;;;;;;;12.70;4.30;;;;;;;10.41;41.31;102327.66;105982;1255;60441;-74
2024/02/28 06:37:01;;;;;;;13.50;5.30;;;;;;;10.83;40.86;102327.69;105988;1251;60467;-74
2024/02/28 06:39:28;;;;;;;10.90;4.40;;;;;;;11.30;39.64;102328.35;105739;1251;73856;-75
2024/02/28 06:41:56;;;;;;;15.20;4.40;;;;;;;11.66;38.36;102326.34;106005;1256;61577;-74
2024/02/28 06:44:26;;;;;;;12.90;4.40;;;;;;;11.80;37.49;102325.80;105904;1256;72502;-74
2024/02/28 06:46:53;;;;;;;11.60;3.50;;;;;;;11.84;37.31;102322.70;105980;1250;60395;-74
2024/02/28 06:49:19;;;;;;;8.80;3.30;;;;;;;11.92;36.77;102329.95;106059;1250;60528;-73
2024/02/28 06:51:46;;;;;;;11.20;3.20;;;;;;;11.63;36.75;102333.61;106001;1250;72454;-74
2024/02/28 06:54:14;;;;;;;10.00;4.50;;;;;;;11.02;37.14;102330.20;106128;1254;62590;-75
2024/02/28 06:56:44;;;;;;;12.80;3.20;;;;;;;10.33;38.00;102329.64;105846;1256;71454;-76
2024/02/28 06:59:12;;;;;;;14.60;4.30;;;;;;;9.68;38.79;102325.46;105954;1254;60543;-74
2024/02/28 07:01:39;;;;;;;15.70;4.40;;;;;;;8.98;39.99;102325.43;105975;1256;60419;-75
2024/02/28 07:04:06;;;;;;;13.80;5.10;;;;;;;8.46;41.53;102324.64;106003;1254;72680;-75
2024/02/28 07:06:33;;;;;;;12.20;3.90;;;;;;;8.10;42.24;102327.15;106021;1256;62981;-74
2024/02/28 07:09:01;;;;;;;17.10;5.60;;;;;;;7.70;42.83;102328.70;106050;1256;72698;-76
2024/02/28 07:11:29;;;;;;;7.50;3.80;;;;;;;7.25;44.00;102330.11;105907;1255;61306;-74
2024/02/28 07:14:01;;;;;;;10.10;4.80;;;;;;;6.87;45.06;102332.00;106070;1250;60462;-74
2024/02/28 07:16:30;;;;;;;11.00;4.10;;;;;;;6.51;45.93;102331.38;106060;1251;73804;-76
2024/02/28 07:18:57;;;;;;;12.40;5.40;;;;;;;6.20;47.32;102327.14;106043;1256;63867;-75
2024/02/28 07:21:25;;;;;;;16.60;5.70;;;;;;;5.96;48.43;102328.32;105958;1254;72712;-74
2024/02/28 07:23:54;;;;;;;17.70;6.30;;;;;;;5.72;49.49;102332.23;105965;1250;60448;-74
2024/02/28 07:26:22;;;;;;;12.80;4.90;;;;;;;5.53;50.76;102328.98;105943;1255;60334;-73
2024/02/28 07:28:54;;;;;;;13.00;5.00;;;;;;;5.37;51.41;102322.94;105920;1251;73791;-74
2024/02/28 07:31:22;;;;;;;11.40;4.90;;;;;;;5.18;52.11;102321.40;105913;1254;64934;-75
2024/02/28 07:33:50;;;;;;;14.00;4.50;;;;;;;5.02;53.02;102319.80;105946;1250;70634;-75
2024/02/28 07:36:16;;;;;;;8.20;4.00;;;;;;;4.91;54.18;102320.09;105981;1254;60991;-75
2024/02/28 07:38:43;;;;;;;11.00;5.00;;;;;;;4.83;55.20;102317.91;106020;1252;60403;-74
2024/02/28 07:41:10;;;;;;;15.20;5.80;;;;;;;4.81;55.27;102315.34;105976;1251;73845;-74
2024/02/28 07:43:37;;;;;;;14.70;4.30;;;;;;;4.79;55.56;102314.13;105969;1255;65175;-73
2024/02/28 07:46:08;;;;;;;9.90;3.70;;;;;;;4.78;56.43;102307.21;105894;1254;73738;-74
2024/02/28 07:48:35;;;;;;;10.30;4.90;;;;;;;4.96;56.40;102305.33;106071;1251;60527;-74
2024/02/28 07:51:09;;;;;;;12.20;4.20;;;;;;;5.48;54.65;102304.23;106024;1251;60476;-74
2024/02/28 07:53:36;;;;;;;8.80;4.40;;;;;;;6.35;52.40;102305.88;105933;1255;72217;-76
2024/02/28 07:56:03;;;;;;;12.50;5.20;;;;;;;7.29;49.17;102312.10;105904;1256;65245;-75
2024/02/28 07:58:31;;;;;;;18.40;5.10;;;;;;;8.25;45.95;102306.27;106043;1256;72661;-74
2024/02/28 08:00:58;;;;;;;14.40;4.90;;;;;;;9.16;43.08;102313.11;105949;1251;60492;-75
2024/02/28 08:03:25;;;;;;;13.80;5.30;;;;;;;9.94;41.76;102311.42;105998;1255;60359;-75
2024/02/28 08:05:52;;;;;;;13.50;4.20;;;;;;;10.70;40.41;102310.26;106048;1251;72061;-75
2024/02/28 08:08:19;;;;;;;9.40;3.80;;;;;;;11.41;39.12;102309.22;106017;1251;65288;-75
2024/02/28 08:10:47;;;;;;;7.20;3.50;;;;;;;12.09;37.49;102303.88;106140;1250;71760;-74
2024/02/28 08:13:14;;;;;;;11.20;4.70;;;;;;;12.68;36.49;102298.33;107108;1254;60794;-72
2024/02/28 08:15:41;;;;;;;9.30;3.50;;;;;;;13.18;35.12;102299.86;107659;1251;60235;-74
2024/02/28 08:18:09;;;;;;;6.30;3.60;;;;;;;13.49;34.26;102299.73;106296;1255;73003;-76
2024/02/28 08:20:37;;;;;;;7.30;3.40;;;;;;;13.75;33.52;102294.69;106014;1256;64513;-74
2024/02/28 08:23:05;;;;;;;7.40;3.30;;;;;;;14.06;32.67;102296.26;105884;1250;71678;-76
2024/02/28 08:25:32;;;;;;;8.90;4.80;;;;;;;14.26;32.36;102287.20;106065;1254;60591;-75
2024/02/28 08:27:59;;;;;;;13.80;4.60;;;;;;;14.43;32.17;102286.36;105948;1251;60444;-75
2024/02/28 08:30:27;;;;;;;21.20;4.80;;;;;;;14.60;31.50;102285.55;105916;1255;72955;-75
2024/02/28 08:32:55;;;;;;;13.30;4.00;;;;;;;14.85;31.15;102281.44;106121;1263;65458;-74
2024/02/28 08:35:23;;;;;;;16.70;4.00;;;;;;;15.16;30.57;102280.77;106126;1254;72796;-75
2024/02/28 08:37:51;;;;;;;7.40;3.40;;;;;;;15.39;29.86;102282.66;106005;1250;60498;-75
2024/02/28 08:40:18;;;;;;;12.10;3.00;;;;;;;15.63;29.20;102276.95;105945;1250;61480;-75
2024/02/28 08:42:46;;;;;;;8.40;2.20;;;;;;;15.81;28.79;102275.30;105911;1253;74128;-74
2024/02/28 08:45:13;;;;;;;12.80;3.90;;;;;;;16.04;28.62;102271.70;105907;1252;62449;-75
2024/02/28 08:47:41;;;;;;;6.20;2.90;;;;;;;16.34;27.99;102274.27;105910;1250;73670;-74
2024/02/28 08:50:08;;;;;;;11.70;2.90;;;;;;;16.50;27.67;102268.36;106028;1252;61041;-75
2024/02/28 08:52:36;;;;;;;14.50;4.40;;;;;;;16.59;27.30;102265.37;106026;1256;61842;-74
2024/02/28 08:55:03;;;;;;;7.30;3.70;;;;;;;16.79;27.33;102265.82;106030;1257;75108;-75
2024/02/28 08:57:30;;;;;;;10.40;2.50;;;;;;;17.12;26.60;102268.23;106063;1254;64145;-73
2024/02/28 08:59:58;;;;;;;7.10;2.90;;;;;;;17.34;26.20;102261.40;105929;1256;72712;-74
2024/02/28 09:02:25;;;;;;;9.50;3.30;;;;;;;17.44;26.14;102254.39;105950;1256;60531;-75
2024/02/28 09:04:55;;;;;;;8.70;3.60;;;;;;;17.63;26.02;102251.45;105995;1250;60463;-73
2024/02/28 09:07:23;;;;;;;10.50;2.80;;;;;;;17.79;25.39;102247.73;105964;1251;74428;-75
2024/02/28 09:09:50;;;;;;;7.00;3.30;;;;;;;17.91;25.17;102248.95;105890;1256;63485;-75
2024/02/28 09:12:17;;;;;;;9.10;3.40;;;;;;;18.03;25.18;102249.77;105956;1256;73715;-74
2024/02/28 09:14:54;;;;;;;11.70;3.00;;;;;;;18.13;24.76;102252.31;105928;1252;60420;-74
2024/02/28 09:17:21;;;;;;;13.50;3.50;;;;;;;18.22;24.45;102246.95;105946;1250;60527;-77
2024/02/28 09:19:47;;;;;;;9.80;3.10;;;;;;;18.41;24.40;102241.42;105952;1250;72889;-75
2024/02/28 09:22:15;;;;;;;12.90;3.20;;;;;;;18.58;24.13;102243.27;105962;1256;64707;-77
2024/02/28 09:24:42;;;;;;;7.70;3.40;;;;;;;18.65;24.29;102238.20;105924;1254;70919;-75
2024/02/28 09:27:08;;;;;;;11.00;2.70;;;;;;;18.80;24.16;102241.64;105967;1256;61607;-74
2024/02/28 09:29:35;;;;;;;7.20;2.60;;;;;;;19.10;23.98;102238.88;105927;1250;60438;-74
2024/02/28 09:32:02;;;;;;;5.90;2.70;;;;;;;19.32;23.34;102233.96;105905;1254;74116;-76
2024/02/28 09:34:30;;;;;;;6.10;2.50;;;;;;;19.55;23.07;102237.27;106081;1257;63479;-75
2024/02/28 09:36:58;;;;;;;9.70;2.70;;;;;;;19.72;22.85;102239.43;106044;1255;72167;-76
2024/02/28 09:39:25;;;;;;;9.10;2.60;;;;;;;19.88;22.62;102228.48;105892;1255;60530;-76
2024/02/28 09:41:53;;;;;;;8.80;2.50;;;;;;;20.03;21.92;102224.13;105991;1256;61327;-76
2024/02/28 09:44:20;;;;;;;12.30;2.20;;;;;;;20.14;21.18;102230.41;106044;1256;74781;-74
2024/02/28 09:46:50;;;;;;;6.90;2.20;;;;;;;20.08;21.13;102220.98;105895;1256;64320;-77
2024/02/28 09:49:17;;;;;;;5.90;2.50;;;;;;;20.12;21.11;102217.98;105982;1256;72426;-76
2024/02/28 09:51:44;;;;;;;11.40;2.80;;;;;;;20.21;20.51;102223.88;105977;1253;60643;-74
2024/02/28 09:54:10;;;;;;;3.90;1.80;;;;;;;20.01;20.29;102213.99;106056;1256;60469;-75
2024/02/28 09:56:37;;;;;;;3.00;1.80;;;;;;;19.78;20.48;102210.71;105910;1256;71901;-75
2024/02/28 09:59:04;;;;;;;6.70;1.50;;;;;;;19.73;20.51;102204.91;105791;1256;63545;-75
2024/02/28 10:01:31;;;;;;;9.20;1.60;;;;;;;19.85;20.71;102201.54;105825;1257;72844;-75
2024/02/28 10:03:59;;;;;;;2.90;1.50;;;;;;;20.01;20.36;102204.41;105822;1256;61132;-74
2024/02/28 10:06:26;;;;;;;6.10;1.60;;;;;;;20.07;20.13;102197.77;105979;1256;60429;-74
2024/02/28 10:08:53;;;;;;;7.90;1.80;;;;;;;20.17;20.01;102195.05;105976;1256;75102;-73
2024/02/28 10:11:21;;;;;;;6.80;1.40;;;;;;;20.27;20.04;102189.83;105980;1256;64032;-75
2024/02/28 10:13:49;;;;;;;6.30;1.60;;;;;;;20.22;19.72;102185.09;105896;1254;72805;-75
2024/02/28 10:16:18;;;;;;;5.50;1.40;;;;;;;20.00;19.48;102190.85;105979;1255;60872;-75
2024/02/28 10:18:46;;;;;;;8.30;1.80;;;;;;;19.76;19.94;102182.19;106003;1256;61372;-73
2024/02/28 10:21:15;;;;;;;5.10;2.40;;;;;;;19.77;20.17;102187.72;106040;1263;73902;-77
2024/02/28 10:23:42;;;;;;;3.50;1.30;;;;;;;19.91;19.88;102185.81;106664;1256;62998;-74
2024/02/28 10:26:09;;;;;;;4.00;1.90;;;;;;;20.08;20.08;102180.14;107043;1256;72655;-75
2024/02/28 10:28:38;;;;;;;6.60;2.10;;;;;;;20.37;19.90;102179.85;107138;1251;61576;-72
2024/02/28 10:31:07;;;;;;;8.90;2.80;;;;;;;20.62;19.83;102172.23;107870;1256;60561;-73
2024/02/28 10:33:35;;;;;;;3.60;2.20;;;;;;;20.86;19.60;102177.67;108226;1255;72977;-74
2024/02/28 10:36:04;;;;;;;10.50;2.80;;;;;;;21.00;19.35;102167.36;108841;1250;64187;-74
2024/02/28 10:38:36;;;;;;;7.50;2.40;;;;;;;21.04;19.83;102168.81;107953;1251;73728;-77
2024/02/28 10:41:03;;;;;;;6.20;2.10;;;;;;;21.13;19.59;102162.36;106397;1250;61553;-76
2024/02/28 10:43:30;;;;;;;8.80;2.10;;;;;;;21.21;19.50;102155.38;106343;1255;60469;-76
2024/02/28 10:46:00;;;;;;;3.40;1.90;;;;;;;21.38;19.47;102155.74;106131;1254;73744;-77
2024/02/28 10:48:30;;;;;;;5.50;1.90;;;;;;;21.55;19.28;102153.86;106044;1256;63189;-76
2024/02/28 10:50:57;;;;;;;3.80;1.30;;;;;;;21.53;18.11;102155.42;105975;1255;71606;-76
2024/02/28 10:53:39;;;;;;;6.30;1.60;;;;;;;21.21;17.90;102145.92;105648;1252;60402;-75
2024/02/28 10:56:06;;;;;;;5.00;1.30;;;;;;;20.89;18.08;102141.18;106101;1256;60492;-75
2024/02/28 10:58:36;;;;;;;2.70;1.40;;;;;;;20.77;18.44;102142.33;105935;1251;74146;-78
2024/02/28 11:01:04;;;;;;;6.90;1.50;;;;;;;20.58;18.41;102143.63;105997;1253;61826;-74
2024/02/28 11:03:32;;;;;;;6.90;1.40;;;;;;;20.41;18.59;102138.67;105866;1257;71656;-75
2024/02/28 11:05:59;;;;;;;6.20;1.40;;;;;;;20.35;19.06;102130.83;105954;1255;60425;-76
2024/02/28 11:08:29;;;;;;;4.10;1.40;;;;;;;20.38;18.88;102127.71;105985;1251;61915;-75
2024/02/28 11:10:57;;;;;;;3.00;0.90;;;;;;;20.39;18.55;102131.23;106001;1256;72106;-76
2024/02/28 11:13:26;;;;;;;2.50;1.20;;;;;;;20.21;18.16;102132.27;105927;1256;65408;-77
2024/02/28 11:15:55;;;;;;;3.10;1.30;;;;;;;19.92;18.36;102121.83;106058;1255;72804;-76
2024/02/28 11:18:22;;;;;;;3.40;1.30;;;;;;;19.80;18.31;102117.05;105914;1256;61646;-77
2024/02/28 11:20:50;;;;;;;1.70;0.80;;;;;;;19.74;18.56;102116.29;105860;1256;60442;-75
2024/02/28 11:23:17;;;;;;;3.90;1.80;;;;;;;19.65;18.91;102118.16;105992;1256;72987;-74
2024/02/28 11:27:47;;;;;;;10.40;2.20;;;;;;;19.61;19.12;102109.08;102679;1286;603742;-75